createdAt,value
2023-01-07T00:01:43.794Z,1.90
2023-01-07T00:04:14.797Z,1.80
2023-01-07T00:06:44.579Z,2.13
2023-01-07T00:09:16.620Z,1.77
2023-01-07T00:11:45.268Z,1.63
2023-01-07T00:14:15.055Z,1.98
2023-01-07T00:16:43.273Z,1.90
2023-01-07T00:19:15.806Z,1.85
2023-01-07T00:21:43.933Z,2.00
2023-01-07T00:24:12.549Z,2.40
2023-01-07T00:26:41.081Z,1.80
2023-01-07T00:29:09.579Z,1.90
2023-01-07T00:31:39.853Z,2.03
2023-01-07T00:34:09.396Z,1.65
2023-01-07T00:36:44.552Z,1.80
2023-01-07T00:39:20.534Z,2.08
2023-01-07T00:42:07.577Z,2.08
2023-01-07T00:44:36.899Z,2.17
2023-01-07T00:47:04.927Z,2.05
2023-01-07T00:49:32.720Z,1.90
2023-01-07T00:52:00.750Z,2.03
2023-01-07T00:54:28.631Z,1.85
2023-01-07T00:56:56.492Z,1.90
2023-01-07T00:59:24.153Z,1.95
2023-01-07T01:01:52.346Z,1.63
2023-01-07T01:04:20.177Z,1.67
2023-01-07T01:06:47.817Z,1.70
2023-01-07T01:09:15.978Z,1.98
2023-01-07T01:11:43.797Z,1.98
2023-01-07T01:14:12.032Z,1.75
2023-01-07T01:16:39.780Z,1.70
2023-01-07T01:19:07.733Z,1.40
2023-01-07T01:21:35.457Z,1.50
2023-01-07T01:24:03.237Z,1.58
2023-01-07T01:26:30.881Z,1.40
2023-01-07T01:28:58.672Z,1.55
2023-01-07T01:31:26.963Z,1.40
2023-01-07T01:33:57.030Z,1.40
2023-01-07T01:36:25.508Z,1.27
2023-01-07T01:38:57.440Z,1.25
2023-01-07T01:41:26.196Z,1.25
2023-01-07T01:43:55.555Z,1.35
2023-01-07T01:46:41.909Z,1.30
2023-01-07T01:49:30.641Z,1.50
2023-01-07T01:52:13.178Z,1.10
2023-01-07T01:54:48.988Z,1.30
2023-01-07T01:57:19.284Z,1.23
2023-01-07T02:02:25.895Z,1.15
2023-01-07T02:04:54.897Z,1.45
2023-01-07T02:07:22.683Z,1.20
2023-01-07T02:10:01.499Z,1.40
2023-01-07T02:12:46.051Z,1.20
2023-01-07T02:15:36.789Z,1.30
2023-01-07T02:18:34.696Z,1.80
2023-01-07T02:21:33.493Z,2.33
2023-01-07T02:24:51.027Z,2.30
2023-01-07T02:27:59.726Z,2.03
2023-01-07T02:31:15.174Z,1.90
2023-01-07T02:33:45.611Z,1.65
2023-01-07T02:36:27.976Z,1.50
2023-01-07T02:39:17.721Z,1.42
2023-01-07T02:42:24.098Z,1.85
2023-01-07T02:45:11.440Z,2.25
2023-01-07T02:47:54.335Z,2.10
2023-01-07T02:50:22.061Z,2.10
2023-01-07T02:52:49.879Z,2.05
2023-01-07T02:55:23.950Z,2.05
2023-01-07T02:58:21.043Z,2.00
2023-01-07T03:01:13.555Z,1.83
2023-01-07T03:04:25.521Z,1.92
2023-01-07T03:07:24.325Z,1.80
2023-01-07T03:10:24.493Z,1.90
2023-01-07T03:13:04.229Z,2.00
2023-01-07T03:16:00.112Z,1.40
2023-01-07T03:18:36.987Z,1.50
2023-01-07T03:21:11.864Z,1.58
2023-01-07T03:23:48.392Z,2.00
2023-01-07T03:26:28.037Z,1.40
2023-01-07T03:28:58.655Z,1.77
2023-01-07T03:31:28.893Z,1.73
2023-01-07T03:34:11.982Z,1.60
2023-01-07T03:36:46.039Z,1.35
2023-01-07T03:39:15.531Z,1.40
2023-01-07T03:42:02.385Z,1.60
2023-01-07T03:44:30.150Z,1.60
2023-01-07T03:46:58.174Z,1.33
2023-01-07T03:49:26.246Z,1.27
2023-01-07T03:51:54.709Z,1.40
2023-01-07T03:54:26.312Z,1.02
2023-01-07T03:56:54.195Z,1.45
2023-01-07T03:59:21.974Z,1.50
2023-01-07T04:01:49.801Z,1.40
2023-01-07T04:04:17.887Z,1.20
2023-01-07T04:06:46.053Z,1.45
2023-01-07T04:09:21.903Z,1.60
2023-01-07T04:11:50.215Z,1.30
2023-01-07T04:14:18.551Z,1.10
2023-01-07T04:16:46.384Z,1.20
2023-01-07T04:19:14.120Z,1.15
2023-01-07T04:21:41.851Z,1.40
2023-01-07T04:24:10.513Z,1.27
2023-01-07T04:26:38.705Z,1.48
2023-01-07T04:29:06.953Z,1.10
2023-01-07T04:31:35.561Z,1.38
2023-01-07T04:34:03.343Z,1.50
2023-01-07T04:36:31.886Z,1.40
2023-01-07T04:38:59.930Z,1.23
2023-01-07T04:41:28.402Z,1.40
2023-01-07T04:43:56.280Z,1.30
2023-01-07T04:46:25.213Z,1.65
2023-01-07T04:48:53.220Z,1.30
2023-01-07T04:51:21.810Z,1.20
2023-01-07T04:53:49.713Z,0.93
2023-01-07T04:56:17.719Z,1.30
2023-01-07T04:58:46.543Z,0.93
2023-01-07T05:01:14.890Z,1.00
2023-01-07T05:03:43.903Z,0.98
2023-01-07T05:06:12.032Z,0.93
2023-01-07T05:08:40.146Z,1.20
2023-01-07T05:11:08.099Z,2.65
2023-01-07T05:13:38.235Z,13.82
2023-01-07T05:16:07.048Z,12.18
2023-01-07T05:18:35.250Z,4.40
2023-01-07T05:21:04.242Z,2.38
2023-01-07T05:23:31.979Z,1.70
2023-01-07T05:25:59.675Z,1.38
2023-01-07T05:28:28.589Z,1.17
2023-01-07T05:31:00.053Z,1.00
2023-01-07T05:33:28.168Z,1.10
2023-01-07T05:35:55.840Z,1.08
2023-01-07T05:38:23.705Z,0.98
2023-01-07T05:41:09.869Z,1.20
2023-01-07T05:43:37.638Z,0.93
2023-01-07T05:46:05.545Z,0.82
2023-01-07T05:48:33.396Z,1.05
2023-01-07T05:51:01.230Z,0.77
2023-01-07T05:53:28.870Z,0.82
2023-01-07T05:55:58.440Z,1.10
2023-01-07T05:58:27.523Z,1.30
2023-01-07T06:00:55.890Z,1.58
2023-01-07T06:03:23.933Z,0.93
2023-01-07T06:05:52.294Z,0.60
2023-01-07T06:08:20.052Z,0.63
2023-01-07T06:10:47.875Z,0.40
2023-01-07T06:13:15.647Z,0.50
2023-01-07T06:15:43.742Z,0.45
2023-01-07T06:18:11.711Z,0.73
2023-01-07T06:20:39.402Z,0.65
2023-01-07T06:23:07.248Z,1.35
2023-01-07T06:25:34.958Z,1.20
2023-01-07T06:28:02.701Z,1.02
2023-01-07T06:30:30.460Z,0.80
2023-01-07T06:32:58.300Z,0.60
2023-01-07T06:35:26.032Z,0.65
2023-01-07T06:37:53.794Z,0.88
2023-01-07T06:40:21.648Z,1.48
2023-01-07T06:42:49.440Z,1.70
2023-01-07T06:45:17.351Z,1.10
2023-01-07T06:47:50.842Z,1.00
2023-01-07T06:50:18.623Z,0.60
2023-01-07T06:52:46.340Z,1.10
2023-01-07T06:55:14.107Z,0.85
2023-01-07T06:57:41.757Z,0.50
2023-01-07T07:00:10.230Z,0.52
2023-01-07T07:02:37.962Z,0.70
2023-01-07T07:05:06.019Z,0.88
2023-01-07T07:07:34.149Z,1.13
2023-01-07T07:10:07.131Z,2.50
2023-01-07T07:12:37.702Z,1.60
2023-01-07T07:15:07.832Z,1.60
2023-01-07T07:17:35.527Z,1.70
2023-01-07T07:20:03.727Z,2.33
2023-01-07T07:22:31.375Z,2.90
2023-01-07T07:24:59.043Z,1.60
2023-01-07T07:27:26.925Z,1.42
2023-01-07T07:29:54.883Z,1.45
2023-01-07T07:32:28.201Z,0.80
2023-01-07T07:34:57.173Z,0.80
2023-01-07T07:37:24.841Z,0.73
2023-01-07T07:39:52.819Z,0.60
2023-01-07T07:42:20.619Z,0.80
2023-01-07T07:44:50.294Z,0.80
2023-01-07T07:47:18.808Z,0.70
2023-01-07T07:49:46.456Z,0.60
2023-01-07T07:52:14.289Z,0.77
2023-01-07T07:54:42.605Z,0.60
2023-01-07T07:57:10.324Z,0.90
2023-01-07T07:59:37.979Z,0.90
2023-01-07T08:02:06.212Z,0.88
2023-01-07T08:04:34.876Z,1.00
2023-01-07T08:07:02.543Z,0.95
2023-01-07T08:09:30.265Z,1.10
2023-01-07T08:11:58.027Z,1.00
2023-01-07T08:14:26.073Z,0.90
2023-01-07T08:16:53.856Z,0.90
2023-01-07T08:19:21.546Z,1.05
2023-01-07T08:21:50.480Z,1.45
2023-01-07T08:24:18.304Z,1.50
2023-01-07T08:26:45.977Z,1.20
2023-01-07T08:29:13.827Z,1.17
2023-01-07T08:31:41.459Z,1.00
2023-01-07T08:34:09.476Z,1.67
2023-01-07T08:36:37.146Z,1.30
2023-01-07T08:39:04.860Z,0.80
2023-01-07T08:41:32.467Z,1.25
2023-01-07T08:44:00.238Z,0.90
2023-01-07T08:46:27.936Z,0.80
2023-01-07T08:48:55.685Z,0.80
2023-01-07T08:51:23.439Z,0.90
2023-01-07T08:53:51.128Z,1.30
2023-01-07T08:56:18.824Z,1.15
2023-01-07T08:58:46.565Z,0.70
2023-01-07T09:01:14.570Z,0.70
2023-01-07T09:03:42.308Z,0.75
2023-01-07T09:06:10.202Z,0.70
2023-01-07T09:08:38.403Z,0.57
2023-01-07T09:11:06.266Z,0.50
2023-01-07T09:13:34.238Z,0.40
2023-01-07T09:16:02.000Z,0.50
2023-01-07T09:18:29.793Z,0.50
2023-01-07T09:20:57.498Z,0.60
2023-01-07T09:23:25.243Z,0.70
2023-01-07T09:25:52.899Z,0.85
2023-01-07T09:28:20.771Z,0.60
2023-01-07T09:30:48.615Z,0.80
2023-01-07T09:33:16.280Z,0.60
2023-01-07T09:35:43.929Z,0.75
2023-01-07T09:38:11.544Z,0.85
2023-01-07T09:40:42.965Z,0.90
2023-01-07T09:44:00.920Z,0.90
2023-01-07T09:46:23.356Z,1.17
2023-01-07T09:48:57.972Z,0.60
2023-01-07T09:51:44.387Z,0.90
2023-01-07T09:54:32.095Z,0.75
2023-01-07T09:56:59.789Z,0.70
2023-01-07T09:59:27.610Z,0.65
2023-01-07T10:02:22.393Z,0.80
2023-01-07T10:05:27.559Z,0.80
2023-01-07T10:08:31.188Z,1.20
2023-01-07T10:11:24.502Z,0.60
2023-01-07T10:14:04.028Z,0.80
2023-01-07T10:17:08.648Z,0.70
2023-01-07T10:19:52.262Z,0.80
2023-01-07T10:22:32.055Z,0.70
2023-01-07T10:25:32.161Z,0.70
2023-01-07T10:28:09.639Z,0.85
2023-01-07T10:30:46.066Z,1.10
2023-01-07T10:33:29.156Z,1.00
2023-01-07T10:36:25.738Z,0.98
2023-01-07T10:39:17.718Z,0.77
2023-01-07T10:42:02.507Z,0.70
2023-01-07T10:44:50.644Z,0.80
2023-01-07T10:47:57.051Z,1.10
2023-01-07T10:50:57.485Z,1.05
2023-01-07T10:54:11.948Z,1.38
2023-01-07T10:56:45.123Z,1.05
2023-01-07T10:59:20.645Z,1.20
2023-01-07T11:01:56.571Z,1.58
2023-01-07T11:04:26.018Z,1.20
2023-01-07T11:06:59.287Z,0.70
2023-01-07T11:09:40.945Z,0.82
2023-01-07T11:15:15.209Z,0.65
2023-01-07T11:18:33.993Z,0.50
2023-01-07T11:21:02.500Z,0.90
2023-01-07T11:23:36.108Z,0.80
2023-01-07T11:26:18.917Z,0.95
2023-01-07T11:28:57.853Z,0.68
2023-01-07T11:31:46.457Z,1.05
2023-01-07T11:34:34.464Z,0.70
2023-01-07T11:37:44.775Z,4.88
2023-01-07T11:40:15.490Z,1.92
2023-01-07T11:43:24.523Z,1.10
2023-01-07T11:46:20.201Z,1.00
2023-01-07T11:48:54.442Z,1.02
2023-01-07T11:51:24.120Z,0.73
2023-01-07T11:53:56.535Z,1.40
2023-01-07T11:56:32.152Z,1.10
2023-01-07T11:59:12.106Z,1.52
2023-01-07T12:01:53.129Z,1.02
2023-01-07T12:04:27.121Z,1.45
2023-01-07T12:07:16.586Z,1.90
2023-01-07T12:09:45.998Z,1.35
2023-01-07T12:12:39.184Z,1.35
2023-01-07T12:15:34.788Z,1.20
2023-01-07T12:18:49.936Z,1.60
2023-01-07T12:21:56.247Z,1.45
2023-01-07T12:25:00.432Z,1.05
2023-01-07T12:27:56.545Z,1.05
2023-01-07T12:30:51.433Z,1.67
2023-01-07T12:33:45.855Z,0.90
2023-01-07T12:36:35.064Z,1.20
2023-01-07T12:39:10.850Z,1.70
2023-01-07T12:41:45.051Z,1.20
2023-01-07T12:44:22.636Z,1.10
2023-01-07T12:47:30.866Z,1.20
2023-01-07T12:50:26.003Z,1.17
2023-01-07T12:53:04.593Z,1.20
2023-01-07T12:55:51.947Z,0.90
2023-01-07T12:59:04.161Z,1.10
2023-01-07T13:02:02.700Z,1.00
2023-01-07T13:05:12.753Z,1.25
2023-01-07T13:08:18.331Z,1.15
2023-01-07T13:10:56.693Z,1.05
2023-01-07T13:13:49.439Z,0.88
2023-01-07T13:16:17.317Z,1.00
2023-01-07T13:18:45.249Z,1.38
2023-01-07T13:21:18.278Z,1.50
2023-01-07T13:24:00.889Z,1.50
2023-01-07T13:26:34.762Z,1.20
2023-01-07T13:29:50.462Z,1.10
2023-01-07T13:32:36.049Z,1.00
2023-01-07T13:35:24.962Z,1.10
2023-01-07T13:38:29.394Z,1.10
2023-01-07T13:41:18.741Z,1.20
2023-01-07T13:44:06.515Z,1.00
2023-01-07T13:46:42.999Z,1.00
2023-01-07T13:49:29.843Z,1.20
2023-01-07T13:52:20.796Z,1.00
2023-01-07T13:54:48.630Z,1.00
2023-01-07T13:57:31.803Z,1.00
2023-01-07T14:00:02.498Z,1.48
2023-01-07T14:02:57.703Z,1.23
2023-01-07T14:05:29.165Z,1.48
2023-01-07T14:10:29.213Z,1.40
2023-01-07T14:13:38.368Z,1.40
2023-01-07T14:16:56.999Z,1.70
2023-01-07T14:19:45.762Z,1.70
2023-01-07T14:22:40.741Z,1.70
2023-01-07T14:25:25.150Z,1.38
2023-01-07T14:28:57.016Z,1.73
2023-01-07T14:31:28.972Z,2.15
2023-01-07T14:34:15.752Z,2.25
2023-01-07T14:37:02.155Z,2.20
2023-01-07T14:39:36.830Z,1.88
2023-01-07T14:42:19.679Z,2.00
2023-01-07T14:44:49.332Z,1.67
2023-01-07T14:47:44.805Z,1.70
2023-01-07T14:50:48.832Z,1.90
2023-01-07T14:53:16.448Z,1.80
2023-01-07T14:56:18.452Z,1.80
2023-01-07T14:59:04.772Z,1.50
2023-01-07T15:02:13.289Z,1.83
2023-01-07T15:05:13.025Z,1.80
2023-01-07T15:07:43.052Z,1.70
2023-01-07T15:10:49.805Z,1.63
2023-01-07T15:13:53.783Z,1.55
2023-01-07T15:16:22.289Z,1.85
2023-01-07T15:18:53.246Z,2.50
2023-01-07T15:21:59.655Z,2.38
2023-01-07T15:25:17.505Z,2.00
2023-01-07T15:28:10.979Z,2.03
2023-01-07T15:30:56.549Z,2.25
2023-01-07T15:34:07.399Z,2.70
2023-01-07T15:36:48.621Z,6.93
2023-01-07T15:39:30.762Z,7.35
2023-01-07T15:41:59.526Z,5.22
2023-01-07T15:44:41.075Z,3.55
2023-01-07T15:47:32.022Z,3.22
2023-01-07T15:50:40.870Z,3.05
2023-01-07T15:53:11.617Z,3.33
2023-01-07T15:55:59.523Z,3.13
2023-01-07T15:58:40.579Z,2.67
2023-01-07T16:01:17.450Z,3.05
2023-01-07T16:03:47.703Z,3.47
2023-01-07T16:06:33.710Z,3.30
2023-01-07T16:09:21.315Z,3.15
2023-01-07T16:11:49.756Z,3.92
2023-01-07T16:14:21.984Z,5.25
2023-01-07T16:17:03.457Z,5.00
2023-01-07T16:19:31.275Z,5.65
2023-01-07T16:22:00.945Z,5.03
2023-01-07T16:24:28.762Z,4.32
2023-01-07T16:27:04.853Z,4.30
2023-01-07T16:29:49.484Z,4.90
2023-01-07T16:32:18.520Z,4.70
2023-01-07T16:34:58.818Z,5.63
2023-01-07T16:37:28.062Z,4.40
2023-01-07T16:39:56.093Z,4.40
2023-01-07T16:42:24.254Z,5.45
2023-01-07T16:44:55.310Z,5.65
2023-01-07T16:47:25.030Z,4.20
2023-01-07T16:49:55.080Z,4.30
2023-01-07T16:52:35.587Z,3.90
2023-01-07T16:55:03.449Z,4.40
2023-01-07T16:57:42.270Z,3.65
2023-01-07T17:00:20.325Z,4.07
2023-01-07T17:03:00.662Z,3.60
2023-01-07T17:05:31.003Z,3.20
2023-01-07T17:08:06.059Z,3.00
2023-01-07T17:10:37.224Z,3.47
2023-01-07T17:13:15.106Z,3.03
2023-01-07T17:15:44.150Z,2.97
2023-01-07T17:18:11.907Z,3.47
2023-01-07T17:20:55.867Z,3.58
2023-01-07T17:23:26.369Z,3.63
2023-01-07T17:26:10.941Z,3.63
2023-01-07T17:28:55.612Z,3.60
2023-01-07T17:31:24.584Z,3.95
2023-01-07T17:33:55.565Z,4.43
2023-01-07T17:36:26.578Z,4.45
2023-01-07T17:38:54.426Z,5.28
2023-01-07T17:41:42.511Z,5.18
2023-01-07T17:44:12.909Z,7.00
2023-01-07T17:46:41.643Z,8.65
2023-01-07T17:49:11.498Z,8.27
2023-01-07T17:51:43.473Z,8.82
2023-01-07T17:54:24.586Z,8.80
2023-01-07T17:56:52.816Z,8.25
2023-01-07T17:59:23.379Z,7.88
2023-01-07T18:01:54.936Z,7.63
2023-01-07T18:04:23.089Z,7.28
2023-01-07T18:06:50.955Z,7.32
2023-01-07T18:09:19.186Z,7.25
2023-01-07T18:12:05.897Z,6.95
2023-01-07T18:14:33.668Z,6.97
2023-01-07T18:17:01.533Z,6.60
2023-01-07T18:19:29.512Z,6.72
2023-01-07T18:21:57.505Z,6.90
2023-01-07T18:24:25.326Z,5.68
2023-01-07T18:26:55.126Z,7.25
2023-01-07T18:29:24.367Z,7.68
2023-01-07T18:31:52.115Z,8.10
2023-01-07T18:34:20.366Z,8.32
2023-01-07T18:36:48.045Z,7.88
2023-01-07T18:39:19.564Z,7.68
2023-01-07T18:41:50.609Z,7.28
2023-01-07T18:44:19.675Z,6.80
2023-01-07T18:46:48.328Z,7.20
2023-01-07T18:49:16.064Z,6.28
2023-01-07T18:51:47.180Z,6.75
2023-01-07T18:54:15.787Z,6.82
2023-01-07T18:56:45.770Z,7.03
2023-01-07T18:59:13.960Z,7.22
2023-01-07T19:01:41.757Z,7.10
2023-01-07T19:04:09.942Z,7.53
2023-01-07T19:06:37.929Z,7.53
2023-01-07T19:09:05.604Z,7.07
2023-01-07T19:11:33.432Z,7.55
2023-01-07T19:14:01.588Z,6.28
2023-01-07T19:16:29.588Z,6.03
2023-01-07T19:18:57.491Z,5.50
2023-01-07T19:21:26.612Z,5.95
2023-01-07T19:23:55.065Z,6.78
2023-01-07T19:26:22.925Z,6.57
2023-01-07T19:28:50.594Z,7.45
2023-01-07T19:31:18.425Z,8.43
2023-01-07T19:33:46.157Z,9.25
2023-01-07T19:36:16.430Z,9.57
2023-01-07T19:41:21.132Z,8.98
2023-01-07T19:43:53.412Z,9.55
2023-01-07T19:46:21.127Z,8.85
2023-01-07T19:48:49.250Z,9.90
2023-01-07T19:51:16.946Z,10.15
2023-01-07T19:53:44.858Z,10.95
2023-01-07T19:56:12.895Z,11.00
2023-01-07T19:58:42.063Z,10.55
2023-01-07T20:01:17.705Z,11.60
2023-01-07T20:03:45.778Z,12.02
2023-01-07T20:06:17.599Z,11.65
2023-01-07T20:08:47.003Z,11.32
2023-01-07T20:11:15.481Z,11.98
2023-01-07T20:13:46.710Z,10.93
2023-01-07T20:16:18.145Z,11.25
2023-01-07T20:18:49.502Z,10.57
2023-01-07T20:21:20.533Z,10.13
2023-01-07T20:23:48.372Z,10.48
2023-01-07T20:26:26.326Z,10.65
2023-01-07T20:28:55.167Z,9.35
2023-01-07T20:31:25.082Z,9.68
2023-01-07T20:33:55.644Z,9.20
2023-01-07T20:36:30.294Z,9.27
2023-01-07T20:39:03.269Z,9.63
2023-01-07T20:41:31.803Z,9.73
2023-01-07T20:44:02.959Z,9.63
2023-01-07T20:46:34.674Z,7.95
2023-01-07T20:49:02.787Z,10.90
2023-01-07T20:51:31.612Z,10.77
2023-01-07T20:54:00.011Z,12.23
2023-01-07T20:56:31.817Z,11.65
2023-01-07T20:59:01.079Z,11.27
2023-01-07T21:01:29.486Z,11.05
2023-01-07T21:03:57.732Z,10.48
2023-01-07T21:06:25.887Z,9.73
2023-01-07T21:08:53.947Z,9.82
2023-01-07T21:11:25.563Z,9.10
2023-01-07T21:13:55.953Z,10.35
2023-01-07T21:16:25.897Z,9.88
2023-01-07T21:18:53.952Z,10.18
2023-01-07T21:21:24.976Z,9.75
2023-01-07T21:23:54.491Z,10.02
2023-01-07T21:26:23.149Z,9.70
2023-01-07T21:28:55.751Z,9.63
2023-01-07T21:31:23.941Z,9.35
2023-01-07T21:33:55.537Z,10.55
2023-01-07T21:36:25.350Z,11.60
2023-01-07T21:38:59.231Z,11.23
2023-01-07T21:41:28.566Z,11.23
2023-01-07T21:43:56.624Z,11.43
2023-01-07T21:46:24.417Z,10.55
2023-01-07T21:48:52.401Z,9.57
2023-01-07T21:51:26.292Z,10.05
2023-01-07T21:53:56.294Z,9.70
2023-01-07T21:56:26.864Z,8.70
2023-01-07T21:58:54.644Z,9.13
2023-01-07T22:01:28.001Z,9.88
2023-01-07T22:03:57.375Z,8.77
2023-01-07T22:06:31.241Z,9.27
2023-01-07T22:09:03.364Z,8.95
2023-01-07T22:11:32.348Z,9.90
2023-01-07T22:14:01.023Z,8.98
2023-01-07T22:16:30.943Z,9.07
2023-01-07T22:19:01.628Z,10.13
2023-01-07T22:21:30.909Z,9.05
2023-01-07T22:23:59.229Z,8.50
2023-01-07T22:26:26.972Z,8.85
2023-01-07T22:28:59.458Z,8.85
2023-01-07T22:31:32.270Z,9.13
2023-01-07T22:34:00.308Z,9.30
2023-01-07T22:37:05.314Z,8.30
2023-01-07T22:39:41.574Z,8.07
2023-01-07T22:42:20.876Z,7.25
2023-01-07T22:44:59.265Z,7.57
2023-01-07T22:47:33.773Z,7.38
2023-01-07T22:50:05.652Z,7.38
2023-01-07T22:52:33.952Z,7.50
2023-01-07T22:55:02.210Z,7.15
2023-01-07T22:57:31.432Z,5.90
2023-01-07T23:00:00.465Z,6.40
2023-01-07T23:02:28.620Z,6.40
2023-01-07T23:04:56.299Z,6.05
2023-01-07T23:07:23.958Z,6.15
2023-01-07T23:09:51.747Z,6.00
2023-01-07T23:12:19.548Z,6.82
2023-01-07T23:14:47.439Z,7.22
2023-01-07T23:17:15.151Z,6.30
2023-01-07T23:19:43.194Z,6.45
2023-01-07T23:22:11.399Z,7.15
2023-01-07T23:24:39.143Z,6.60
2023-01-07T23:27:06.875Z,6.40
2023-01-07T23:29:35.770Z,6.90
2023-01-07T23:32:12.279Z,7.00
2023-01-07T23:34:40.485Z,6.75
2023-01-07T23:37:26.165Z,6.45
2023-01-07T23:40:05.659Z,6.60
2023-01-07T23:42:34.003Z,6.45
2023-01-07T23:45:04.070Z,6.05
2023-01-07T23:47:31.856Z,6.82
2023-01-07T23:49:59.566Z,7.20
2023-01-07T23:52:27.804Z,7.20
2023-01-07T23:54:55.498Z,6.95
2023-01-07T23:57:23.583Z,6.38
2023-01-07T23:59:51.333Z,6.93
